Time;durP1;ratioP1;P1;durP2;ratioP2;P2;SDS_P1;SDS_P2;PMS_P1;PMS_P2;Temp;Humidity;BMP_temperature;BMP_pressure;BME280_temperature;BME280_humidity;BME280_pressure;Samples;Min_cycle;Max_cycle;Signal;HPM_P1;HPM_P2
2021/12/20 09:38:10;;;;;;;5.60;1.20;;;9.00;99.90;;;;;;3696942;23;20242;-68
2021/12/20 09:40:40;;;;;;;3.40;1.20;;;9.10;99.90;;;;;;4890775;29;20212;-70
2021/12/20 09:43:10;;;;;;;1.97;0.60;;;9.30;99.90;;;;;;4893239;29;20207;-71
2021/12/20 09:45:37;;;;;;;4.40;0.70;;;9.40;99.90;;;;;;4899399;29;20238;-71
2021/12/20 09:48:05;;;;;;;6.33;1.10;;;9.50;99.90;;;;;;4893268;29;20210;-72
2021/12/20 09:50:32;;;;;;;3.47;0.80;;;9.60;99.90;;;;;;4900862;29;20226;-68
2021/12/20 09:53:04;;;;;;;6.73;0.90;;;9.50;99.90;;;;;;4900701;29;20210;-76
2021/12/20 09:55:33;;;;;;;7.03;0.90;;;9.50;99.90;;;;;;4900713;29;20253;-71
2021/12/20 09:58:02;;;;;;;4.77;0.67;;;9.50;99.90;;;;;;4900850;29;20214;-78
2021/12/20 10:00:31;;;;;;;3.87;1.10;;;9.40;99.90;;;;;;4887348;29;20214;-73
2021/12/20 10:02:58;;;;;;;4.73;0.83;;;9.60;99.90;;;;;;4896229;29;20332;-76
2021/12/20 10:05:25;;;;;;;3.87;0.80;;;9.70;99.90;;;;;;4891405;29;20222;-76
2021/12/20 10:07:53;;;;;;;7.53;1.03;;;9.80;99.90;;;;;;4900999;29;20215;-76
2021/12/20 10:10:40;;;;;;;4.77;0.80;;;9.90;99.90;;;;;;4897549;29;20224;-73
2021/12/20 10:13:08;;;;;;;4.60;0.90;;;9.70;99.90;;;;;;4900116;29;20564;-75
2021/12/20 10:15:37;;;;;;;4.07;0.90;;;9.60;99.90;;;;;;4900242;29;20566;-70
2021/12/20 10:18:05;;;;;;;5.27;0.87;;;9.80;99.90;;;;;;4899851;29;20695;-69
2021/12/20 10:20:35;;;;;;;3.80;1.00;;;9.40;99.90;;;;;;4894777;29;20211;-74
2021/12/20 10:23:12;;;;;;;15.47;1.30;;;9.30;99.90;;;;;;4889793;29;20218;-67
2021/12/20 10:25:42;;;;;;;4.00;1.20;;;9.10;99.90;;;;;;4881418;29;20726;-66
2021/12/20 10:28:12;;;;;;;1.50;0.60;;;9.50;99.90;;;;;;4881461;29;20211;-70
2021/12/20 10:30:41;;;;;;;4.70;0.80;;;9.60;99.90;;;;;;4881644;29;20217;-68
2021/12/20 10:33:12;;;;;;;4.60;0.83;;;9.40;99.90;;;;;;4897273;29;20221;-68
2021/12/20 10:35:48;;;;;;;7.03;1.13;;;9.10;99.90;;;;;;4900373;29;20234;-68
2021/12/20 10:38:25;;;;;;;6.70;1.23;;;9.10;99.90;;;;;;4880578;29;20228;-68
2021/12/20 10:40:55;;;;;;;8.33;1.47;;;9.20;99.90;;;;;;4898827;29;20214;-70
2021/12/20 10:43:24;;;;;;;6.03;0.90;;;9.20;99.90;;;;;;4899677;29;20211;-70
2021/12/20 10:45:53;;;;;;;2.37;0.83;;;9.30;99.90;;;;;;4899634;29;20313;-74
2021/12/20 10:48:20;;;;;;;6.33;0.90;;;9.20;99.90;;;;;;4899712;29;20215;-68
2021/12/20 10:50:47;;;;;;;5.43;1.13;;;9.30;99.90;;;;;;4899972;29;20214;-70
2021/12/20 10:53:18;;;;;;;5.50;1.33;;;9.10;99.90;;;;;;4899533;29;20211;-69
2021/12/20 10:55:46;;;;;;;8.37;1.20;;;9.30;99.90;;;;;;4899329;29;20245;-71
2021/12/20 10:58:29;;;;;;;5.13;0.93;;;9.20;99.90;;;;;;4894335;29;20211;-69
2021/12/20 11:01:14;;;;;;;4.63;0.73;;;9.00;99.90;;;;;;4893219;29;20669;-72
2021/12/20 11:03:42;;;;;;;5.83;1.00;;;8.80;99.90;;;;;;4881949;29;20221;-71
2021/12/20 11:09:08;;;;;;;11.00;1.10;;;8.70;99.90;;;;;;4879758;29;20214;-70
2021/12/20 11:11:36;;;;;;;1.37;0.60;;;8.70;99.90;;;;;;4899975;29;20308;-67
2021/12/20 11:14:06;;;;;;;8.27;0.80;;;8.80;99.90;;;;;;4899290;29;20221;-66
2021/12/20 11:16:35;;;;;;;5.60;1.10;;;9.00;99.90;;;;;;4899485;29;20297;-72
2021/12/20 11:19:23;;;;;;;4.10;0.90;;;8.90;99.90;;;;;;4899790;29;20261;-73
2021/12/20 11:22:02;;;;;;;2.17;0.63;;;8.90;99.90;;;;;;4899349;29;20666;-67
2021/12/20 11:24:32;;;;;;;6.97;0.87;;;8.80;99.90;;;;;;4899060;29;20214;-70
2021/12/20 11:27:00;;;;;;;7.87;1.13;;;8.60;99.90;;;;;;4899422;29;20210;-68
2021/12/20 11:29:29;;;;;;;6.83;0.90;;;8.50;99.90;;;;;;4893473;29;20230;-67
2021/12/20 11:31:57;;;;;;;6.90;0.77;;;8.40;99.90;;;;;;4886527;29;20661;-69
2021/12/20 11:34:24;;;;;;;5.20;1.00;;;8.10;99.90;;;;;;4898373;29;20222;-67
2021/12/20 11:36:52;;;;;;;5.37;1.67;;;8.20;99.90;;;;;;4899238;29;20207;-68
2021/12/20 11:39:19;;;;;;;6.67;1.27;;;8.20;99.90;;;;;;4898760;29;20238;-69
2021/12/20 11:41:46;;;;;;;8.43;1.17;;;8.20;99.90;;;;;;4899041;29;20214;-67
2021/12/20 11:44:16;;;;;;;11.60;1.20;;;8.30;99.90;;;;;;4898285;29;20593;-68
2021/12/20 11:47:06;;;;;;;7.60;0.97;;;8.30;99.90;;;;;;4886152;29;20678;-66
2021/12/20 11:49:33;;;;;;;6.67;1.13;;;8.30;99.90;;;;;;4898936;29;20211;-66
2021/12/20 11:52:07;;;;;;;3.63;1.47;;;8.30;99.90;;;;;;4895078;29;20217;-67
2021/12/20 11:54:37;;;;;;;5.70;1.53;;;8.40;99.90;;;;;;4898716;29;20210;-68
2021/12/20 11:57:04;;;;;;;7.10;0.90;;;8.30;99.90;;;;;;4898844;29;20210;-66
2021/12/20 11:59:58;;;;;;;4.93;0.93;;;8.30;99.90;;;;;;4899133;29;20253;-68
2021/12/20 12:02:28;;;;;;;3.60;0.77;;;8.20;99.90;;;;;;4888178;29;20542;-67
2021/12/20 12:05:00;;;;;;;5.53;1.10;;;8.50;99.90;;;;;;4898166;29;20582;-68
2021/12/20 12:07:29;;;;;;;6.97;1.07;;;8.70;99.90;;;;;;4898527;29;20214;-67
2021/12/20 12:10:04;;;;;;;5.47;1.23;;;8.50;99.90;;;;;;4898686;29;20234;-71
2021/12/20 12:12:34;;;;;;;8.20;0.97;;;8.30;99.90;;;;;;4898099;29;20229;-67
2021/12/20 12:15:07;;;;;;;4.57;1.20;;;8.20;99.90;;;;;;4898489;29;20266;-68
2021/12/20 12:17:55;;;;;;;3.57;0.80;;;8.20;99.90;;;;;;4898361;29;20234;-69
2021/12/20 12:20:49;;;;;;;8.47;0.97;;;8.20;99.90;;;;;;4887181;29;20235;-69
2021/12/20 12:23:21;;;;;;;6.90;1.03;;;8.40;99.90;;;;;;4896406;29;20662;-69
2021/12/20 12:25:51;;;;;;;5.43;1.03;;;8.60;99.90;;;;;;4898114;29;20240;-68
2021/12/20 12:28:20;;;;;;;5.40;0.83;;;8.40;99.90;;;;;;4897863;29;20202;-66
2021/12/20 12:30:58;;;;;;;2.77;0.73;;;8.50;99.90;;;;;;4898186;29;20217;-70
2021/12/20 12:33:39;;;;;;;5.43;0.90;;;8.70;99.90;;;;;;4898174;29;20266;-68
2021/12/20 12:36:08;;;;;;;5.20;1.10;;;8.60;99.90;;;;;;4894342;29;20234;-68
2021/12/20 12:38:38;;;;;;;7.33;0.83;;;8.90;99.90;;;;;;4895094;29;20662;-69
2021/12/20 12:41:19;;;;;;;4.57;0.70;;;8.70;99.90;;;;;;4896812;29;20234;-70
2021/12/20 12:44:07;;;;;;;7.57;1.17;;;8.70;99.90;;;;;;4879188;29;20211;-69
2021/12/20 12:46:46;;;;;;;4.70;0.77;;;8.80;99.90;;;;;;4878346;29;20235;-70
2021/12/20 12:49:46;;;;;;;2.70;0.80;;;8.60;99.90;;;;;;4882063;29;20327;-68
2021/12/20 12:52:34;;;;;;;8.97;0.83;;;8.90;99.90;;;;;;4893518;29;20214;-67
2021/12/20 12:55:04;;;;;;;5.03;0.90;;;9.00;99.90;;;;;;4897173;29;20222;-67
2021/12/20 12:57:34;;;;;;;4.00;0.60;;;9.10;99.90;;;;;;4892560;29;20255;-68
2021/12/20 13:00:27;;;;;;;2.57;0.67;;;9.20;99.90;;;;;;4897572;29;20244;-68
2021/12/20 13:03:07;;;;;;;1.97;0.90;;;9.20;99.90;;;;;;4887690;29;20211;-71
2021/12/20 13:05:35;;;;;;;6.57;0.63;;;9.20;99.90;;;;;;4897293;29;20253;-69
2021/12/20 13:08:03;;;;;;;3.73;0.70;;;9.10;99.90;;;;;;4897118;29;20206;-66
2021/12/20 13:10:36;;;;;;;2.87;0.33;;;9.00;99.90;;;;;;4897226;29;20214;-68
2021/12/20 13:13:07;;;;;;;4.20;0.60;;;9.00;99.90;;;;;;4897705;29;20229;-71
2021/12/20 13:15:40;;;;;;;3.60;0.70;;;8.70;99.90;;;;;;4897507;29;20238;-69
2021/12/20 13:18:09;;;;;;;4.47;0.87;;;8.80;99.90;;;;;;4893316;29;20210;-67
2021/12/20 13:20:46;;;;;;;3.37;1.13;;;8.80;99.90;;;;;;4897110;29;20274;-68
2021/12/20 13:23:15;;;;;;;4.00;0.60;;;8.70;99.90;;;;;;4897336;29;20213;-67
2021/12/20 13:25:48;;;;;;;10.17;0.70;;;8.80;99.90;;;;;;4897829;29;20322;-69
2021/12/20 13:28:19;;;;;;;3.27;0.70;;;8.70;99.90;;;;;;4897745;29;20210;-69
2021/12/20 13:30:50;;;;;;;7.90;0.90;;;8.80;99.90;;;;;;4897112;29;20305;-71
2021/12/20 13:33:19;;;;;;;4.67;0.90;;;8.70;99.90;;;;;;4897076;29;20218;-67
2021/12/20 13:35:49;;;;;;;2.57;0.53;;;8.40;99.90;;;;;;4886968;29;20234;-71
2021/12/20 13:38:23;;;;;;;4.17;0.40;;;8.50;99.90;;;;;;4878462;29;20226;-69
2021/12/20 13:40:54;;;;;;;4.33;0.93;;;8.60;99.90;;;;;;4878210;29;20241;-71
2021/12/20 13:43:30;;;;;;;12.83;1.50;;;8.50;99.90;;;;;;4896021;29;20214;-68
2021/12/20 13:46:28;;;;;;;3.20;0.60;;;8.50;99.90;;;;;;4896903;29;20665;-69
2021/12/20 13:49:01;;;;;;;1.77;0.80;;;8.40;99.90;;;;;;4897321;29;20303;-69
2021/12/20 13:51:35;;;;;;;1.87;0.87;;;8.30;99.90;;;;;;4881618;29;20225;-72
2021/12/20 13:54:19;;;;;;;2.03;0.40;;;8.20;99.90;;;;;;4891815;29;20217;-68
2021/12/20 13:56:51;;;;;;;3.67;1.20;;;8.30;99.90;;;;;;4878820;29;20211;-71
2021/12/20 13:59:23;;;;;;;2.03;0.60;;;8.40;99.90;;;;;;4893844;29;20681;-72
2021/12/20 14:01:50;;;;;;;4.40;0.47;;;8.20;99.90;;;;;;4896636;29;20573;-71
2021/12/20 14:04:27;;;;;;;8.23;1.17;;;8.10;99.90;;;;;;4896981;29;20250;-70
2021/12/20 14:06:53;;;;;;;2.43;0.50;;;8.20;99.90;;;;;;4898270;29;20210;-67
2021/12/20 14:09:24;;;;;;;5.57;1.07;;;8.20;99.90;;;;;;4900656;29;20211;-72
2021/12/20 14:12:07;;;;;;;2.60;0.70;;;8.20;99.90;;;;;;4897872;29;20203;-73
2021/12/20 14:14:34;;;;;;;3.50;0.73;;;8.50;99.90;;;;;;4880001;29;20211;-68
2021/12/20 14:17:02;;;;;;;3.87;0.70;;;8.70;99.90;;;;;;4886871;29;20214;-72
2021/12/20 14:20:04;;;;;;;3.37;0.60;;;8.20;99.90;;;;;;4900404;29;20218;-69
2021/12/20 14:22:33;;;;;;;7.03;1.00;;;8.10;99.90;;;;;;4805477;29;20218;-69
2021/12/20 14:25:07;;;;;;;3.07;0.80;;;8.00;99.90;;;;;;4805515;29;20250;-68
2021/12/20 14:27:34;;;;;;;6.13;0.60;;;8.10;99.90;;;;;;4852008;29;20622;-69
2021/12/20 14:30:05;;;;;;;3.73;0.70;;;7.90;99.90;;;;;;4898383;29;20210;-72
2021/12/20 14:32:39;;;;;;;2.97;0.57;;;8.00;99.90;;;;;;4900376;29;20218;-69
2021/12/20 14:35:39;;;;;;;7.87;0.90;;;7.90;99.90;;;;;;4900394;29;20652;-68
2021/12/20 14:38:28;;;;;;;4.67;0.50;;;7.80;99.90;;;;;;4805829;29;20237;-71
2021/12/20 14:40:57;;;;;;;5.23;0.70;;;7.90;99.90;;;;;;4805627;29;20269;-71
2021/12/20 14:43:36;;;;;;;4.37;0.97;;;7.90;99.90;;;;;;4861380;29;20237;-68
2021/12/20 14:46:18;;;;;;;1.70;0.50;;;8.00;99.90;;;;;;4891463;29;20227;-71
2021/12/20 14:48:49;;;;;;;2.77;0.70;;;7.90;99.90;;;;;;4881407;29;20302;-68
2021/12/20 14:51:26;;;;;;;3.60;0.83;;;7.80;99.90;;;;;;4882470;29;20210;-74
2021/12/20 14:54:11;;;;;;;3.73;0.83;;;7.80;99.90;;;;;;4899890;29;20561;-70
2021/12/20 14:56:40;;;;;;;7.97;1.00;;;7.70;99.90;;;;;;4899924;29;20234;-69
2021/12/20 14:59:09;;;;;;;3.67;0.83;;;7.80;99.90;;;;;;4900026;29;20321;-68
2021/12/20 15:01:36;;;;;;;4.37;1.27;;;7.80;99.90;;;;;;4898404;29;20267;-67
2021/12/20 15:04:03;;;;;;;4.83;1.00;;;7.70;99.90;;;;;;4880851;29;20576;-69
2021/12/20 15:06:40;;;;;;;5.50;1.27;;;7.60;99.90;;;;;;4880577;29;20231;-68
2021/12/20 15:09:07;;;;;;;8.07;1.30;;;7.70;99.90;;;;;;4880945;29;20561;-70
2021/12/20 15:11:34;;;;;;;5.77;0.80;;;7.80;99.90;;;;;;4884849;29;20347;-68
2021/12/20 15:14:05;;;;;;;2.50;0.90;;;7.90;99.90;;;;;;4899940;29;20210;-72
2021/12/20 15:16:32;;;;;;;4.77;1.10;;;7.60;99.90;;;;;;4899718;29;20732;-67
2021/12/20 15:19:00;;;;;;;4.00;1.20;;;7.60;99.90;;;;;;4895357;29;20570;-67
2021/12/20 15:21:26;;;;;;;4.53;1.03;;;7.60;99.90;;;;;;4897736;29;20732;-70
2021/12/20 15:23:53;;;;;;;7.20;2.00;;;7.40;99.90;;;;;;4899333;29;20229;-69
2021/12/20 15:26:21;;;;;;;6.57;1.10;;;7.50;99.90;;;;;;4899479;29;20230;-73
2021/12/20 15:28:47;;;;;;;4.17;0.90;;;7.60;99.90;;;;;;4899441;29;20206;-69
2021/12/20 15:31:16;;;;;;;3.00;0.80;;;7.50;99.90;;;;;;4899147;29;20218;-71
2021/12/20 15:33:43;;;;;;;3.93;1.03;;;7.30;99.90;;;;;;4899461;29;20206;-69
2021/12/20 15:36:10;;;;;;;5.57;1.27;;;7.40;99.90;;;;;;4892538;29;20730;-69
2021/12/20 15:38:37;;;;;;;3.13;0.80;;;7.30;99.90;;;;;;4881817;29;20230;-68
2021/12/20 15:41:05;;;;;;;8.67;1.10;;;7.30;99.90;;;;;;4887731;29;20437;-68
2021/12/20 15:43:31;;;;;;;8.73;1.00;;;7.00;99.90;;;;;;4880299;29;20241;-68
2021/12/20 15:45:58;;;;;;;4.73;1.23;;;6.90;99.90;;;;;;4890330;29;20237;-68
2021/12/20 15:48:26;;;;;;;3.90;0.80;;;6.90;99.90;;;;;;4899086;29;20211;-68
2021/12/20 15:50:54;;;;;;;6.10;1.10;;;6.90;99.90;;;;;;4898908;29;20211;-68
2021/12/20 15:53:21;;;;;;;7.07;1.67;;;6.90;99.90;;;;;;4898563;29;20214;-71
2021/12/20 15:55:48;;;;;;;5.57;1.00;;;6.90;99.90;;;;;;4898277;29;20706;-75
2021/12/20 15:58:15;;;;;;;3.77;0.70;;;7.10;99.90;;;;;;4880530;29;20207;-68
2021/12/20 16:00:42;;;;;;;9.00;1.30;;;7.10;99.90;;;;;;4879830;29;20246;-67
2021/12/20 16:03:09;;;;;;;2.17;0.60;;;7.30;99.90;;;;;;4895449;29;20673;-67
2021/12/20 16:05:37;;;;;;;5.13;0.57;;;7.30;99.90;;;;;;4898420;29;20226;-69
2021/12/20 16:08:04;;;;;;;1.27;0.70;;;7.30;99.90;;;;;;4898641;29;20206;-68
2021/12/20 16:10:31;;;;;;;4.50;0.87;;;7.40;99.90;;;;;;4898169;29;20638;-73
2021/12/20 16:12:58;;;;;;;6.00;0.80;;;7.30;99.90;;;;;;4896882;29;20221;-72
2021/12/20 16:15:27;;;;;;;3.07;0.83;;;7.30;99.90;;;;;;4898634;29;20241;-68
2021/12/20 16:17:55;;;;;;;1.40;0.50;;;7.20;99.90;;;;;;4898654;29;20242;-68
2021/12/20 16:20:24;;;;;;;6.83;1.10;;;7.40;99.90;;;;;;4898213;29;20230;-68
2021/12/20 16:22:52;;;;;;;5.07;0.70;;;7.60;99.90;;;;;;4898184;29;20221;-73
2021/12/20 16:25:21;;;;;;;6.43;0.90;;;7.70;99.90;;;;;;4898033;29;20237;-75
2021/12/20 16:27:50;;;;;;;3.50;1.00;;;7.80;99.90;;;;;;4898404;29;20221;-74
2021/12/20 16:30:21;;;;;;;1.97;0.80;;;7.70;99.90;;;;;;4897891;29;20210;-72
2021/12/20 16:32:51;;;;;;;2.23;1.13;;;7.40;99.90;;;;;;4897790;29;20214;-73
2021/12/20 16:35:20;;;;;;;2.93;1.23;;;7.10;99.90;;;;;;4897755;29;20348;-75
2021/12/20 16:37:48;;;;;;;3.47;0.70;;;7.00;99.90;;;;;;4897578;29;20210;-70
2021/12/20 16:40:19;;;;;;;5.50;1.60;;;7.00;99.90;;;;;;4897129;29;20261;-69
2021/12/20 16:42:47;;;;;;;3.67;1.53;;;7.10;99.90;;;;;;4897220;29;20222;-68
